sensor_id;sensor_type;location;lat;lon;timestamp;pressure;altitude;pressure_sealevel;temperature;humidity
62634;BME280;48704;50.534;6.442;2023-02-12T00:01:12;97500.28;;;3.15;100.00
62634;BME280;48704;50.534;6.442;2023-02-12T00:03:38;97501.78;;;3.09;100.00
62634;BME280;48704;50.534;6.442;2023-02-12T00:06:04;97507.75;;;3.14;100.00
62634;BME280;48704;50.534;6.442;2023-02-12T00:08:30;97498.75;;;3.21;100.00
62634;BME280;48704;50.534;6.442;2023-02-12T00:10:56;97501.25;;;2.89;100.00
62634;BME280;48704;50.534;6.442;2023-02-12T00:13:21;97494.66;;;2.97;100.00
62634;BME280;48704;50.534;6.442;2023-02-12T00:15:46;97498.66;;;3.10;100.00
62634;BME280;48704;50.534;6.442;2023-02-12T00:18:12;97493.38;;;2.43;100.00
62634;BME280;48704;50.534;6.442;2023-02-12T00:20:37;97485.13;;;2.87;100.00
62634;BME280;48704;50.534;6.442;2023-02-12T00:23:04;97486.84;;;3.10;100.00
62634;BME280;48704;50.534;6.442;2023-02-12T00:25:29;97483.75;;;3.15;100.00
62634;BME280;48704;50.534;6.442;2023-02-12T00:27:55;97486.53;;;3.18;100.00
62634;BME280;48704;50.534;6.442;2023-02-12T00:30:20;97486.16;;;3.23;100.00
62634;BME280;48704;50.534;6.442;2023-02-12T00:32:46;97485.00;;;3.24;100.00
62634;BME280;48704;50.534;6.442;2023-02-12T00:35:11;97490.00;;;3.08;100.00
62634;BME280;48704;50.534;6.442;2023-02-12T00:37:36;97489.22;;;3.11;100.00
62634;BME280;48704;50.534;6.442;2023-02-12T00:40:02;97489.28;;;3.18;100.00
62634;BME280;48704;50.534;6.442;2023-02-12T00:42:28;97486.28;;;2.86;100.00
62634;BME280;48704;50.534;6.442;2023-02-12T00:44:53;97487.22;;;2.60;100.00
62634;BME280;48704;50.534;6.442;2023-02-12T00:47:18;97485.75;;;2.70;100.00
62634;BME280;48704;50.534;6.442;2023-02-12T00:49:43;97490.53;;;2.77;100.00
62634;BME280;48704;50.534;6.442;2023-02-12T00:52:09;97494.56;;;2.86;100.00
62634;BME280;48704;50.534;6.442;2023-02-12T00:54:34;97491.19;;;2.59;100.00
62634;BME280;48704;50.534;6.442;2023-02-12T00:56:59;97486.47;;;2.63;100.00
62634;BME280;48704;50.534;6.442;2023-02-12T00:59:25;97487.16;;;2.94;100.00
62634;BME280;48704;50.534;6.442;2023-02-12T01:01:52;97498.56;;;2.99;100.00
62634;BME280;48704;50.534;6.442;2023-02-12T01:04:18;97503.28;;;2.99;100.00
62634;BME280;48704;50.534;6.442;2023-02-12T01:06:43;97506.25;;;2.76;100.00
62634;BME280;48704;50.534;6.442;2023-02-12T01:09:09;97507.81;;;2.74;100.00
62634;BME280;48704;50.534;6.442;2023-02-12T01:11:34;97504.72;;;2.79;100.00
62634;BME280;48704;50.534;6.442;2023-02-12T01:14:00;97504.16;;;3.10;100.00
62634;BME280;48704;50.534;6.442;2023-02-12T01:16:26;97511.25;;;3.11;100.00
62634;BME280;48704;50.534;6.442;2023-02-12T01:18:53;97498.25;;;3.08;100.00
62634;BME280;48704;50.534;6.442;2023-02-12T01:21:21;97490.50;;;2.73;100.00
62634;BME280;48704;50.534;6.442;2023-02-12T01:23:47;97488.25;;;2.86;100.00
62634;BME280;48704;50.534;6.442;2023-02-12T01:26:14;97497.75;;;2.92;100.00
62634;BME280;48704;50.534;6.442;2023-02-12T01:28:43;97501.63;;;2.84;100.00
62634;BME280;48704;50.534;6.442;2023-02-12T01:31:13;97491.84;;;2.90;100.00
62634;BME280;48704;50.534;6.442;2023-02-12T01:33:39;97486.00;;;3.02;100.00
62634;BME280;48704;50.534;6.442;2023-02-12T01:36:05;97486.47;;;3.11;100.00
62634;BME280;48704;50.534;6.442;2023-02-12T01:38:30;97493.19;;;3.14;100.00
62634;BME280;48704;50.534;6.442;2023-02-12T01:41:04;97488.00;;;3.05;100.00
62634;BME280;48704;50.534;6.442;2023-02-12T01:43:30;97488.34;;;3.00;100.00
62634;BME280;48704;50.534;6.442;2023-02-12T01:45:58;97488.25;;;2.86;100.00
62634;BME280;48704;50.534;6.442;2023-02-12T01:48:26;97485.72;;;2.66;100.00
62634;BME280;48704;50.534;6.442;2023-02-12T01:50:53;97473.06;;;2.55;100.00
62634;BME280;48704;50.534;6.442;2023-02-12T01:53:21;97480.09;;;2.52;100.00
62634;BME280;48704;50.534;6.442;2023-02-12T01:55:52;97476.91;;;2.47;100.00
62634;BME280;48704;50.534;6.442;2023-02-12T01:58:19;97471.50;;;2.57;100.00
62634;BME280;48704;50.534;6.442;2023-02-12T02:00:45;97480.56;;;2.58;100.00
62634;BME280;48704;50.534;6.442;2023-02-12T02:03:11;97481.25;;;2.95;100.00
62634;BME280;48704;50.534;6.442;2023-02-12T02:05:43;97481.31;;;3.06;100.00
62634;BME280;48704;50.534;6.442;2023-02-12T02:08:11;97478.69;;;2.73;100.00
62634;BME280;48704;50.534;6.442;2023-02-12T02:10:37;97485.56;;;2.93;100.00
62634;BME280;48704;50.534;6.442;2023-02-12T02:13:03;97483.44;;;2.76;100.00
62634;BME280;48704;50.534;6.442;2023-02-12T02:15:49;97469.22;;;2.66;100.00
62634;BME280;48704;50.534;6.442;2023-02-12T02:18:22;97481.00;;;2.67;100.00
62634;BME280;48704;50.534;6.442;2023-02-12T02:29:40;97472.84;;;2.78;100.00
62634;BME280;48704;50.534;6.442;2023-02-12T02:32:28;97466.16;;;2.79;100.00
62634;BME280;48704;50.534;6.442;2023-02-12T02:35:04;97465.25;;;2.64;100.00
62634;BME280;48704;50.534;6.442;2023-02-12T02:42:41;97465.34;;;2.75;100.00
62634;BME280;48704;50.534;6.442;2023-02-12T02:45:18;97464.41;;;2.56;100.00
62634;BME280;48704;50.534;6.442;2023-02-12T02:47:51;97461.59;;;2.49;100.00
62634;BME280;48704;50.534;6.442;2023-02-12T02:50:22;97461.16;;;2.44;100.00
62634;BME280;48704;50.534;6.442;2023-02-12T02:52:53;97455.63;;;2.40;100.00
62634;BME280;48704;50.534;6.442;2023-02-12T02:55:24;97454.78;;;2.36;100.00
62634;BME280;48704;50.534;6.442;2023-02-12T02:57:56;97455.28;;;2.45;100.00
62634;BME280;48704;50.534;6.442;2023-02-12T03:00:38;97451.69;;;2.41;100.00
62634;BME280;48704;50.534;6.442;2023-02-12T03:03:09;97456.44;;;2.44;100.00
62634;BME280;48704;50.534;6.442;2023-02-12T03:05:42;97454.56;;;2.52;100.00
62634;BME280;48704;50.534;6.442;2023-02-12T03:08:26;97464.66;;;2.41;100.00
62634;BME280;48704;50.534;6.442;2023-02-12T03:11:05;97458.84;;;2.49;100.00
62634;BME280;48704;50.534;6.442;2023-02-12T03:13:36;97458.94;;;2.60;100.00
62634;BME280;48704;50.534;6.442;2023-02-12T03:16:08;97460.50;;;2.57;100.00
62634;BME280;48704;50.534;6.442;2023-02-12T03:18:41;97456.44;;;2.44;100.00
62634;BME280;48704;50.534;6.442;2023-02-12T03:21:12;97460.69;;;2.38;100.00
62634;BME280;48704;50.534;6.442;2023-02-12T03:23:46;97454.84;;;2.43;100.00
62634;BME280;48704;50.534;6.442;2023-02-12T03:26:20;97447.84;;;2.49;100.00
62634;BME280;48704;50.534;6.442;2023-02-12T03:28:47;97453.44;;;2.63;100.00
62634;BME280;48704;50.534;6.442;2023-02-12T03:34:28;97448.66;;;2.53;100.00
62634;BME280;48704;50.534;6.442;2023-02-12T03:37:02;97458.84;;;2.49;100.00
62634;BME280;48704;50.534;6.442;2023-02-12T03:42:06;97462.88;;;2.59;100.00
62634;BME280;48704;50.534;6.442;2023-02-12T03:49:57;97466.69;;;2.95;100.00
62634;BME280;48704;50.534;6.442;2023-02-12T03:52:23;97467.09;;;2.97;100.00
62634;BME280;48704;50.534;6.442;2023-02-12T03:54:49;97465.81;;;2.84;100.00
62634;BME280;48704;50.534;6.442;2023-02-12T03:57:18;97462.22;;;2.76;100.00
62634;BME280;48704;50.534;6.442;2023-02-12T03:59:45;97452.69;;;2.66;100.00
62634;BME280;48704;50.534;6.442;2023-02-12T04:02:12;97452.72;;;2.70;100.00
62634;BME280;48704;50.534;6.442;2023-02-12T04:04:39;97451.56;;;2.71;100.00
62634;BME280;48704;50.534;6.442;2023-02-12T04:07:04;97455.44;;;2.66;100.00
62634;BME280;48704;50.534;6.442;2023-02-12T04:09:30;97454.66;;;2.66;100.00
62634;BME280;48704;50.534;6.442;2023-02-12T04:12:12;97454.63;;;2.59;100.00
62634;BME280;48704;50.534;6.442;2023-02-12T04:14:54;97456.97;;;2.57;100.00
62634;BME280;48704;50.534;6.442;2023-02-12T04:20:26;97450.28;;;2.61;100.00
62634;BME280;48704;50.534;6.442;2023-02-12T04:23:11;97461.69;;;2.60;100.00
62634;BME280;48704;50.534;6.442;2023-02-12T04:26:02;97457.50;;;2.77;100.00
62634;BME280;48704;50.534;6.442;2023-02-12T04:31:32;97464.13;;;3.23;100.00
62634;BME280;48704;50.534;6.442;2023-02-12T04:36:29;97472.69;;;3.08;100.00
62634;BME280;48704;50.534;6.442;2023-02-12T04:39:04;97470.97;;;2.89;100.00
62634;BME280;48704;50.534;6.442;2023-02-12T04:41:31;97474.34;;;3.19;100.00
62634;BME280;48704;50.534;6.442;2023-02-12T04:43:57;97480.72;;;3.38;100.00
62634;BME280;48704;50.534;6.442;2023-02-12T04:46:22;97476.00;;;3.38;100.00
62634;BME280;48704;50.534;6.442;2023-02-12T04:48:55;97480.72;;;3.38;100.00
62634;BME280;48704;50.534;6.442;2023-02-12T04:51:22;97476.81;;;3.42;100.00
62634;BME280;48704;50.534;6.442;2023-02-12T04:53:48;97479.59;;;3.42;100.00
62634;BME280;48704;50.534;6.442;2023-02-12T04:56:13;97476.06;;;3.45;100.00
62634;BME280;48704;50.534;6.442;2023-02-12T04:58:39;97480.72;;;3.30;100.00
62634;BME280;48704;50.534;6.442;2023-02-12T05:01:05;97476.66;;;3.14;100.00
62634;BME280;48704;50.534;6.442;2023-02-12T05:03:31;97484.53;;;3.15;100.00
62634;BME280;48704;50.534;6.442;2023-02-12T05:06:04;97490.09;;;3.22;100.00
62634;BME280;48704;50.534;6.442;2023-02-12T05:08:29;97479.00;;;3.12;100.00
62634;BME280;48704;50.534;6.442;2023-02-12T05:10:55;97486.78;;;2.99;100.00
62634;BME280;48704;50.534;6.442;2023-02-12T05:13:20;97486.78;;;2.99;100.00
62634;BME280;48704;50.534;6.442;2023-02-12T05:15:45;97483.22;;;2.95;100.00
62634;BME280;48704;50.534;6.442;2023-02-12T05:18:11;97478.88;;;2.94;100.00
62634;BME280;48704;50.534;6.442;2023-02-12T05:20:36;97471.81;;;2.93;100.00
62634;BME280;48704;50.534;6.442;2023-02-12T05:23:01;97482.06;;;3.03;100.00
62634;BME280;48704;50.534;6.442;2023-02-12T05:25:27;97478.50;;;2.99;100.00
62634;BME280;48704;50.534;6.442;2023-02-12T05:27:52;97490.00;;;3.08;100.00
62634;BME280;48704;50.534;6.442;2023-02-12T05:30:18;97489.91;;;2.97;100.00
62634;BME280;48704;50.534;6.442;2023-02-12T05:32:43;97485.25;;;3.05;100.00
62634;BME280;48704;50.534;6.442;2023-02-12T05:35:08;97489.19;;;3.08;100.00
62634;BME280;48704;50.534;6.442;2023-02-12T05:37:34;97485.19;;;2.98;100.00
62634;BME280;48704;50.534;6.442;2023-02-12T05:40:01;97488.22;;;2.82;100.00
62634;BME280;48704;50.534;6.442;2023-02-12T05:42:28;97484.19;;;2.73;100.00
62634;BME280;48704;50.534;6.442;2023-02-12T05:44:53;97490.50;;;2.73;100.00
62634;BME280;48704;50.534;6.442;2023-02-12T05:47:18;97484.16;;;2.69;100.00
62634;BME280;48704;50.534;6.442;2023-02-12T05:49:44;97482.13;;;2.62;100.00
62634;BME280;48704;50.534;6.442;2023-02-12T05:52:09;97487.22;;;2.60;100.00
62634;BME280;48704;50.534;6.442;2023-02-12T05:54:34;97487.97;;;2.54;100.00
62634;BME280;48704;50.534;6.442;2023-02-12T05:57:00;97480.94;;;2.56;100.00
62634;BME280;48704;50.534;6.442;2023-02-12T05:59:25;97481.25;;;2.48;100.00
62634;BME280;48704;50.534;6.442;2023-02-12T06:01:51;97489.50;;;2.48;100.00
62634;BME280;48704;50.534;6.442;2023-02-12T06:04:19;97483.69;;;2.56;100.00
62634;BME280;48704;50.534;6.442;2023-02-12T06:06:45;97485.63;;;2.52;100.00
62634;BME280;48704;50.534;6.442;2023-02-12T06:09:12;97480.88;;;2.49;100.00
62634;BME280;48704;50.534;6.442;2023-02-12T06:11:38;97478.88;;;2.46;100.00
62634;BME280;48704;50.534;6.442;2023-02-12T06:14:05;97476.06;;;2.43;100.00
62634;BME280;48704;50.534;6.442;2023-02-12T06:16:31;97477.16;;;2.34;100.00
62634;BME280;48704;50.534;6.442;2023-02-12T06:18:57;97489.41;;;2.41;100.00
62634;BME280;48704;50.534;6.442;2023-02-12T06:21:25;97489.06;;;2.46;100.00
62634;BME280;48704;50.534;6.442;2023-02-12T06:23:51;97491.06;;;2.49;100.00
62634;BME280;48704;50.534;6.442;2023-02-12T06:26:17;97487.19;;;2.53;100.00
62634;BME280;48704;50.534;6.442;2023-02-12T06:28:43;97491.19;;;2.59;100.00
62634;BME280;48704;50.534;6.442;2023-02-12T06:31:20;97499.44;;;2.59;100.00
62634;BME280;48704;50.534;6.442;2023-02-12T06:33:46;97493.88;;;2.52;100.00
62634;BME280;48704;50.534;6.442;2023-02-12T06:36:12;97496.63;;;2.52;100.00
62634;BME280;48704;50.534;6.442;2023-02-12T06:38:37;97498.19;;;2.53;100.00
62634;BME280;48704;50.534;6.442;2023-02-12T06:41:03;97502.94;;;2.56;100.00
62634;BME280;48704;50.534;6.442;2023-02-12T06:43:28;97495.91;;;2.62;100.00
62634;BME280;48704;50.534;6.442;2023-02-12T06:45:54;97501.38;;;2.55;100.00
62634;BME280;48704;50.534;6.442;2023-02-12T06:48:19;97501.78;;;2.57;100.00
62634;BME280;48704;50.534;6.442;2023-02-12T06:50:45;97500.66;;;2.65;100.00
62634;BME280;48704;50.534;6.442;2023-02-12T06:53:10;97508.13;;;2.65;100.00
62634;BME280;48704;50.534;6.442;2023-02-12T06:55:35;97502.13;;;2.52;100.00
62634;BME280;48704;50.534;6.442;2023-02-12T06:58:01;97512.38;;;2.55;100.00
62634;BME280;48704;50.534;6.442;2023-02-12T07:00:26;97503.63;;;2.46;100.00
62634;BME280;48704;50.534;6.442;2023-02-12T07:02:53;97505.13;;;2.40;100.00
62634;BME280;48704;50.534;6.442;2023-02-12T07:05:18;97514.53;;;2.35;100.00
62634;BME280;48704;50.534;6.442;2023-02-12T07:07:44;97515.81;;;2.45;100.00
62634;BME280;48704;50.534;6.442;2023-02-12T07:10:09;97511.09;;;2.46;100.00
62634;BME280;48704;50.534;6.442;2023-02-12T07:12:35;97526.56;;;2.57;100.00
62634;BME280;48704;50.534;6.442;2023-02-12T07:15:00;97526.59;;;2.64;100.00
62634;BME280;48704;50.534;6.442;2023-02-12T07:17:28;97525.72;;;2.53;100.00
62634;BME280;48704;50.534;6.442;2023-02-12T07:19:54;97529.72;;;2.59;100.00
62634;BME280;48704;50.534;6.442;2023-02-12T07:22:19;97525.00;;;2.63;100.00
62634;BME280;48704;50.534;6.442;2023-02-12T07:24:46;97528.13;;;2.58;100.00
62634;BME280;48704;50.534;6.442;2023-02-12T07:27:11;97539.06;;;2.51;100.00
62634;BME280;48704;50.534;6.442;2023-02-12T07:29:37;97533.09;;;2.46;100.00
62634;BME280;48704;50.534;6.442;2023-02-12T07:32:02;97538.09;;;2.74;100.00
62634;BME280;48704;50.534;6.442;2023-02-12T07:34:27;97541.63;;;2.74;100.00
62634;BME280;48704;50.534;6.442;2023-02-12T07:36:53;97543.16;;;2.68;100.00
62634;BME280;48704;50.534;6.442;2023-02-12T07:39:18;97542.44;;;2.75;100.00
62634;BME280;48704;50.534;6.442;2023-02-12T07:41:43;97548.31;;;2.73;100.00
62634;BME280;48704;50.534;6.442;2023-02-12T07:44:10;97541.81;;;2.92;100.00
62634;BME280;48704;50.534;6.442;2023-02-12T07:46:44;97541.84;;;2.99;100.00
62634;BME280;48704;50.534;6.442;2023-02-12T07:49:19;97544.56;;;2.92;100.00
62634;BME280;48704;50.534;6.442;2023-02-12T07:51:45;97547.31;;;2.92;100.00
62634;BME280;48704;50.534;6.442;2023-02-12T07:54:11;97544.66;;;3.06;100.00
62634;BME280;48704;50.534;6.442;2023-02-12T07:56:38;97549.81;;;3.11;100.00
62634;BME280;48704;50.534;6.442;2023-02-12T07:59:10;97550.72;;;3.22;100.00
62634;BME280;48704;50.534;6.442;2023-02-12T08:01:38;97550.69;;;3.19;100.00
62634;BME280;48704;50.534;6.442;2023-02-12T08:04:10;97554.97;;;3.16;100.00
62634;BME280;48704;50.534;6.442;2023-02-12T08:06:38;97553.75;;;3.10;100.00
62634;BME280;48704;50.534;6.442;2023-02-12T08:09:06;97551.53;;;3.26;100.00
62634;BME280;48704;50.534;6.442;2023-02-12T08:11:32;97549.94;;;3.25;100.00
62634;BME280;48704;50.534;6.442;2023-02-12T08:13:58;97555.41;;;3.18;100.00
62634;BME280;48704;50.534;6.442;2023-02-12T08:16:25;97549.75;;;3.04;100.00
62634;BME280;48704;50.534;6.442;2023-02-12T08:18:51;97556.91;;;3.12;100.00
62634;BME280;48704;50.534;6.442;2023-02-12T08:21:19;97565.97;;;3.13;100.00
62634;BME280;48704;50.534;6.442;2023-02-12T08:23:45;97558.44;;;3.06;100.00
62634;BME280;48704;50.534;6.442;2023-02-12T08:26:31;97557.25;;;3.07;100.00
62634;BME280;48704;50.534;6.442;2023-02-12T08:31:28;97552.47;;;3.48;100.00
62634;BME280;48704;50.534;6.442;2023-02-12T08:33:54;97564.78;;;3.65;100.00
62634;BME280;48704;50.534;6.442;2023-02-12T08:36:22;97561.28;;;3.75;100.00
62634;BME280;48704;50.534;6.442;2023-02-12T08:38:48;97561.41;;;3.96;100.00
62634;BME280;48704;50.534;6.442;2023-02-12T08:41:16;97566.38;;;3.73;100.00
62634;BME280;48704;50.534;6.442;2023-02-12T08:43:43;97554.94;;;3.64;100.00
62634;BME280;48704;50.534;6.442;2023-02-12T08:46:11;97558.28;;;3.98;100.00
62634;BME280;48704;50.534;6.442;2023-02-12T08:48:37;97562.25;;;4.11;100.00
62634;BME280;48704;50.534;6.442;2023-02-12T08:51:12;97557.47;;;3.97;100.00
62634;BME280;48704;50.534;6.442;2023-02-12T08:53:39;97567.69;;;3.93;100.00
62634;BME280;48704;50.534;6.442;2023-02-12T08:56:06;97550.38;;;3.96;100.00
62634;BME280;48704;50.534;6.442;2023-02-12T08:58:32;97561.47;;;4.11;100.00
62634;BME280;48704;50.534;6.442;2023-02-12T09:00:57;97543.31;;;4.10;100.00
62634;BME280;48704;50.534;6.442;2023-02-12T09:03:23;97554.81;;;4.19;100.00
62634;BME280;48704;50.534;6.442;2023-02-12T09:05:48;97545.38;;;4.27;100.00
62634;BME280;48704;50.534;6.442;2023-02-12T09:08:14;97545.78;;;4.32;100.00
62634;BME280;48704;50.534;6.442;2023-02-12T09:10:41;97544.22;;;4.35;100.00
62634;BME280;48704;50.534;6.442;2023-02-12T09:13:07;97545.84;;;4.54;100.00
62634;BME280;48704;50.534;6.442;2023-02-12T09:15:51;97544.25;;;4.49;100.00
62634;BME280;48704;50.534;6.442;2023-02-12T09:18:16;97545.13;;;4.75;100.00
62634;BME280;48704;50.534;6.442;2023-02-12T09:20:43;97556.16;;;4.67;100.00
62634;BME280;48704;50.534;6.442;2023-02-12T09:23:10;97547.84;;;4.67;100.00
62634;BME280;48704;50.534;6.442;2023-02-12T09:25:43;97548.66;;;4.72;100.00
62634;BME280;48704;50.534;6.442;2023-02-12T09:28:11;97547.06;;;4.70;100.00
62634;BME280;48704;50.534;6.442;2023-02-12T09:30:37;97551.81;;;4.66;100.00
62634;BME280;48704;50.534;6.442;2023-02-12T09:33:03;97549.06;;;4.84;100.00
62634;BME280;48704;50.534;6.442;2023-02-12T09:35:28;97554.94;;;4.61;100.00
62634;BME280;48704;50.534;6.442;2023-02-12T09:37:54;97554.59;;;4.95;100.00
62634;BME280;48704;50.534;6.442;2023-02-12T09:43:22;97555.38;;;4.92;100.00
62634;BME280;48704;50.534;6.442;2023-02-12T09:45:59;97568.00;;;4.79;100.00
62634;BME280;48704;50.534;6.442;2023-02-12T09:48:47;97558.53;;;4.83;100.00
62634;BME280;48704;50.534;6.442;2023-02-12T09:51:17;97556.97;;;5.00;100.00
62634;BME280;48704;50.534;6.442;2023-02-12T09:53:44;97562.50;;;4.79;100.00
62634;BME280;48704;50.534;6.442;2023-02-12T09:56:21;97561.69;;;4.92;100.00
62634;BME280;48704;50.534;6.442;2023-02-12T09:58:54;97561.72;;;5.03;100.00
62634;BME280;48704;50.534;6.442;2023-02-12T10:01:21;97560.16;;;5.20;100.00
62634;BME280;48704;50.534;6.442;2023-02-12T10:03:50;97568.44;;;5.09;100.00
62634;BME280;48704;50.534;6.442;2023-02-12T10:06:25;97560.94;;;5.27;100.00
62634;BME280;48704;50.534;6.442;2023-02-12T10:14:25;97576.72;;;5.30;100.00
62634;BME280;48704;50.534;6.442;2023-02-12T10:17:06;97579.09;;;5.46;100.00
62634;BME280;48704;50.534;6.442;2023-02-12T10:27:50;97580.69;;;5.44;100.00
62634;BME280;48704;50.534;6.442;2023-02-12T10:30:23;97587.75;;;5.59;100.00
62634;BME280;48704;50.534;6.442;2023-02-12T10:32:55;97586.59;;;5.46;100.00
62634;BME280;48704;50.534;6.442;2023-02-12T10:35:23;97579.09;;;5.39;100.00
62634;BME280;48704;50.534;6.442;2023-02-12T10:38:10;97583.03;;;5.70;100.00
62634;BME280;48704;50.534;6.442;2023-02-12T10:40:43;97570.38;;;5.58;100.00
62634;BME280;48704;50.534;6.442;2023-02-12T10:43:09;97570.44;;;5.19;100.00
62634;BME280;48704;50.534;6.442;2023-02-12T10:45:38;97575.50;;;5.60;100.00
62634;BME280;48704;50.534;6.442;2023-02-12T10:48:10;97573.94;;;5.73;100.00
62634;BME280;48704;50.534;6.442;2023-02-12T10:51:09;97580.63;;;5.86;100.00
62634;BME280;48704;50.534;6.442;2023-02-12T10:53:41;97574.38;;;5.54;100.00
62634;BME280;48704;50.534;6.442;2023-02-12T10:58:38;97576.31;;;5.67;100.00
62634;BME280;48704;50.534;6.442;2023-02-12T11:01:04;97572.75;;;5.67;100.00
62634;BME280;48704;50.534;6.442;2023-02-12T11:03:31;97578.28;;;5.67;100.00
62634;BME280;48704;50.534;6.442;2023-02-12T11:06:21;97573.13;;;5.76;100.00
62634;BME280;48704;50.534;6.442;2023-02-12T11:08:47;97572.00;;;5.49;100.00
62634;BME280;48704;50.534;6.442;2023-02-12T11:11:29;97571.19;;;5.52;100.00
62634;BME280;48704;50.534;6.442;2023-02-12T11:14:05;97568.00;;;5.64;100.00
62634;BME280;48704;50.534;6.442;2023-02-12T11:16:33;97567.22;;;5.70;100.00
62634;BME280;48704;50.534;6.442;2023-02-12T11:19:02;97568.78;;;5.68;100.00
62634;BME280;48704;50.534;6.442;2023-02-12T11:21:28;97563.66;;;5.77;100.00
62634;BME280;48704;50.534;6.442;2023-02-12T11:23:54;97558.13;;;5.77;100.00
62634;BME280;48704;50.534;6.442;2023-02-12T11:28:59;97552.25;;;5.54;100.00
62634;BME280;48704;50.534;6.442;2023-02-12T11:31:30;97548.22;;;5.83;100.00
62634;BME280;48704;50.534;6.442;2023-02-12T11:34:06;97537.09;;;6.12;100.00
62634;BME280;48704;50.534;6.442;2023-02-12T11:36:35;97534.75;;;5.99;100.00
62634;BME280;48704;50.534;6.442;2023-02-12T11:39:01;97537.50;;;6.07;100.00
62634;BME280;48704;50.534;6.442;2023-02-12T11:43:59;97532.34;;;6.09;100.00
62634;BME280;48704;50.534;6.442;2023-02-12T11:46:25;97530.38;;;6.06;100.00
62634;BME280;48704;50.534;6.442;2023-02-12T11:48:52;97527.69;;;5.84;100.00
62634;BME280;48704;50.534;6.442;2023-02-12T11:51:24;97520.97;;;5.71;100.00
62634;BME280;48704;50.534;6.442;2023-02-12T11:53:52;97525.31;;;5.76;100.00
62634;BME280;48704;50.534;6.442;2023-02-12T11:56:19;97516.22;;;5.75;100.00
62634;BME280;48704;50.534;6.442;2023-02-12T11:58:48;97516.25;;;5.68;100.00
62634;BME280;48704;50.534;6.442;2023-02-12T12:01:20;97513.78;;;6.06;100.00
62634;BME280;48704;50.534;6.442;2023-02-12T12:08:49;97505.56;;;5.81;100.00
62634;BME280;48704;50.534;6.442;2023-02-12T12:11:31;97498.44;;;5.94;100.00
62634;BME280;48704;50.534;6.442;2023-02-12T12:16:42;97486.38;;;6.32;100.00
62634;BME280;48704;50.534;6.442;2023-02-12T12:19:27;97494.28;;;6.34;100.00
62634;BME280;48704;50.534;6.442;2023-02-12T12:25:18;97487.94;;;6.33;100.00
62634;BME280;48704;50.534;6.442;2023-02-12T12:31:18;97475.66;;;6.38;100.00
62634;BME280;48704;50.534;6.442;2023-02-12T12:33:56;97469.03;;;6.25;100.00
62634;BME280;48704;50.534;6.442;2023-02-12T12:36:39;97479.97;;;6.46;100.00
62634;BME280;48704;50.534;6.442;2023-02-12T12:48:06;97473.59;;;6.53;100.00
62634;BME280;48704;50.534;6.442;2023-02-12T12:50:54;97466.84;;;6.57;100.00
62634;BME280;48704;50.534;6.442;2023-02-12T13:06:51;97466.28;;;6.18;100.00
62634;BME280;48704;50.534;6.442;2023-02-12T13:09:58;97460.34;;;6.23;100.00
62634;BME280;48704;50.534;6.442;2023-02-12T13:12:45;97465.94;;;6.09;100.00
62634;BME280;48704;50.534;6.442;2023-02-12T13:18:43;97461.22;;;6.02;100.00
62634;BME280;48704;50.534;6.442;2023-02-12T13:21:31;97452.53;;;5.96;100.00
62634;BME280;48704;50.534;6.442;2023-02-12T13:24:06;97446.91;;;6.18;100.00
62634;BME280;48704;50.534;6.442;2023-02-12T13:26:51;97446.94;;;6.11;100.00
62634;BME280;48704;50.534;6.442;2023-02-12T13:29:42;97438.09;;;6.37;100.00
62634;BME280;48704;50.534;6.442;2023-02-12T13:34:53;97442.22;;;6.08;100.00
62634;BME280;48704;50.534;6.442;2023-02-12T13:37:31;97435.81;;;6.25;100.00
62634;BME280;48704;50.534;6.442;2023-02-12T13:40:02;97435.19;;;5.85;100.00
62634;BME280;48704;50.534;6.442;2023-02-12T13:42:38;97428.75;;;6.10;100.00
62634;BME280;48704;50.534;6.442;2023-02-12T13:45:35;97427.16;;;6.12;100.00
62634;BME280;48704;50.534;6.442;2023-02-12T13:48:32;97434.28;;;6.17;100.00
62634;BME280;48704;50.534;6.442;2023-02-12T13:58:52;97424.88;;;5.96;100.00
62634;BME280;48704;50.534;6.442;2023-02-12T14:01:41;97420.91;;;5.97;100.00
62634;BME280;48704;50.534;6.442;2023-02-12T14:04:35;97423.97;;;6.21;100.00
62634;BME280;48704;50.534;6.442;2023-02-12T14:07:06;97420.88;;;6.04;100.00
62634;BME280;48704;50.534;6.442;2023-02-12T14:14:50;97418.41;;;6.24;100.00
62634;BME280;48704;50.534;6.442;2023-02-12T14:35:36;97418.28;;;6.42;100.00
62634;BME280;48704;50.534;6.442;2023-02-12T14:41:27;97416.22;;;6.53;100.00
62634;BME280;48704;50.534;6.442;2023-02-12T14:46:59;97409.03;;;6.66;100.00
62634;BME280;48704;50.534;6.442;2023-02-12T14:49:30;97407.06;;;6.63;100.00
62634;BME280;48704;50.534;6.442;2023-02-12T14:54:51;97407.22;;;6.38;100.00
62634;BME280;48704;50.534;6.442;2023-02-12T14:57:30;97414.09;;;6.20;100.00
62634;BME280;48704;50.534;6.442;2023-02-12T15:02:53;97410.19;;;6.07;100.00
62634;BME280;48704;50.534;6.442;2023-02-12T15:05:25;97409.63;;;6.33;100.00
62634;BME280;48704;50.534;6.442;2023-02-12T15:07:54;97409.34;;;6.17;100.00
62634;BME280;48704;50.534;6.442;2023-02-12T15:10:39;97413.28;;;6.19;100.00
62634;BME280;48704;50.534;6.442;2023-02-12T15:13:12;97414.22;;;6.57;100.00
62634;BME280;48704;50.534;6.442;2023-02-12T15:20:58;97414.31;;;6.43;100.00
62634;BME280;48704;50.534;6.442;2023-02-12T15:23:42;97416.84;;;6.23;100.00
62634;BME280;48704;50.534;6.442;2023-02-12T15:26:14;97411.22;;;6.34;100.00
62634;BME280;48704;50.534;6.442;2023-02-12T15:28:41;97412.47;;;6.26;100.00
62634;BME280;48704;50.534;6.442;2023-02-12T15:31:08;97415.25;;;6.26;100.00
62634;BME280;48704;50.534;6.442;2023-02-12T15:33:38;97415.13;;;6.40;100.00
62634;BME280;48704;50.534;6.442;2023-02-12T15:36:06;97414.47;;;6.22;100.00
62634;BME280;48704;50.534;6.442;2023-02-12T15:38:35;97412.50;;;6.22;100.00
62634;BME280;48704;50.534;6.442;2023-02-12T15:41:02;97419.19;;;6.25;100.00
62634;BME280;48704;50.534;6.442;2023-02-12T15:43:31;97415.34;;;6.04;100.00
62634;BME280;48704;50.534;6.442;2023-02-12T15:46:00;97407.91;;;5.87;100.00